createdAt,value
2022-07-31T00:00:19.330Z,5.88
2022-07-31T00:02:46.986Z,6.82
2022-07-31T00:05:14.476Z,8.85
2022-07-31T00:07:41.908Z,6.03
2022-07-31T00:10:09.550Z,5.55
2022-07-31T00:12:36.858Z,7.75
2022-07-31T00:15:10.228Z,6.72
2022-07-31T00:17:42.871Z,7.05
2022-07-31T00:20:14.843Z,5.07
2022-07-31T00:22:42.531Z,6.35
2022-07-31T00:25:10.451Z,5.05
2022-07-31T00:27:37.786Z,5.68
2022-07-31T00:30:05.597Z,6.07
2022-07-31T00:32:33.261Z,6.00
2022-07-31T00:35:00.799Z,5.40
2022-07-31T00:37:28.324Z,4.60
2022-07-31T00:39:57.381Z,5.47
2022-07-31T00:42:25.875Z,8.23
2022-07-31T00:44:53.300Z,5.25
2022-07-31T00:47:24.043Z,4.57
2022-07-31T00:49:53.228Z,4.15
2022-07-31T00:52:20.833Z,6.13
2022-07-31T00:54:48.217Z,5.90
2022-07-31T00:57:15.669Z,7.97
2022-07-31T00:59:43.912Z,4.75
2022-07-31T01:02:11.493Z,12.57
2022-07-31T01:04:41.536Z,7.15
2022-07-31T01:07:09.269Z,4.10
2022-07-31T01:09:36.698Z,6.68
2022-07-31T01:12:22.602Z,8.73
2022-07-31T01:14:53.628Z,7.88
2022-07-31T01:17:24.201Z,9.45
2022-07-31T01:19:53.027Z,10.63
2022-07-31T01:22:33.778Z,6.78
2022-07-31T01:25:29.415Z,6.13
2022-07-31T01:28:27.384Z,9.15
2022-07-31T01:31:27.283Z,10.43
2022-07-31T01:34:05.657Z,8.88
2022-07-31T01:36:36.834Z,6.50
2022-07-31T01:39:05.345Z,10.13
2022-07-31T01:41:40.711Z,13.68
2022-07-31T01:44:13.750Z,12.80
2022-07-31T01:46:43.770Z,11.27
2022-07-31T01:49:13.166Z,10.27
2022-07-31T01:51:43.273Z,8.40
2022-07-31T01:54:11.349Z,13.85
2022-07-31T01:56:40.336Z,11.00
2022-07-31T01:59:20.124Z,12.63
2022-07-31T02:02:09.927Z,9.77
2022-07-31T02:04:37.958Z,9.02
2022-07-31T02:07:08.171Z,7.90
2022-07-31T02:09:37.726Z,13.48
2022-07-31T02:12:31.975Z,9.63
2022-07-31T02:15:07.035Z,5.53
2022-07-31T02:17:35.794Z,8.38
2022-07-31T02:20:23.574Z,13.90
2022-07-31T02:22:57.343Z,8.15
2022-07-31T02:25:25.120Z,6.43
2022-07-31T02:27:57.815Z,6.55
2022-07-31T02:30:38.876Z,10.48
2022-07-31T02:33:11.573Z,12.70
2022-07-31T02:35:43.962Z,12.10
2022-07-31T02:38:22.359Z,12.02
2022-07-31T02:41:00.152Z,10.80
2022-07-31T02:43:29.514Z,9.73
2022-07-31T02:45:59.533Z,10.07
2022-07-31T02:48:27.552Z,8.38
2022-07-31T02:50:58.209Z,7.95
2022-07-31T02:53:27.105Z,9.05
2022-07-31T02:55:59.363Z,10.73
2022-07-31T02:58:27.267Z,18.55
2022-07-31T03:01:02.090Z,12.40
2022-07-31T03:03:32.563Z,14.20
2022-07-31T03:06:00.022Z,5.13
2022-07-31T03:08:31.102Z,6.50
2022-07-31T03:11:03.496Z,16.25
2022-07-31T03:13:32.030Z,12.07
2022-07-31T03:15:59.779Z,9.30
2022-07-31T03:18:29.407Z,6.13
2022-07-31T03:20:57.338Z,6.10
2022-07-31T03:23:26.295Z,9.68
2022-07-31T03:26:06.117Z,6.65
2022-07-31T03:28:36.686Z,4.97
2022-07-31T03:31:04.604Z,5.38
2022-07-31T03:33:32.332Z,10.55
2022-07-31T03:35:59.795Z,5.82
2022-07-31T03:38:39.222Z,8.90
2022-07-31T03:41:14.523Z,7.32
2022-07-31T03:43:48.103Z,8.27
2022-07-31T03:46:20.443Z,8.02
2022-07-31T03:48:48.420Z,11.00
2022-07-31T03:51:16.058Z,12.35
2022-07-31T03:53:44.212Z,6.95
2022-07-31T03:56:24.998Z,8.82
2022-07-31T03:58:52.881Z,10.93
2022-07-31T04:01:22.119Z,7.82
2022-07-31T04:04:01.484Z,8.27
2022-07-31T04:06:34.844Z,11.82
2022-07-31T04:09:15.387Z,8.30
2022-07-31T04:11:47.704Z,14.32
2022-07-31T04:14:15.193Z,13.07
2022-07-31T04:16:42.804Z,8.90
2022-07-31T04:19:10.743Z,6.03
2022-07-31T04:21:38.238Z,7.32
2022-07-31T04:24:06.118Z,5.43
2022-07-31T04:26:49.475Z,6.93
2022-07-31T04:29:17.581Z,9.75
2022-07-31T04:31:44.998Z,13.57
2022-07-31T04:34:16.263Z,7.07
2022-07-31T04:36:44.347Z,10.40
2022-07-31T04:39:12.166Z,8.15
2022-07-31T04:41:40.453Z,8.00
2022-07-31T04:44:07.882Z,6.72
2022-07-31T04:47:06.284Z,8.68
2022-07-31T04:49:36.337Z,16.65
2022-07-31T04:52:06.061Z,11.85
2022-07-31T04:54:34.665Z,6.40
2022-07-31T04:57:03.266Z,5.40
2022-07-31T04:59:59.555Z,8.43
2022-07-31T05:02:18.156Z,9.05
2022-07-31T05:04:45.607Z,8.15
2022-07-31T05:07:24.011Z,12.05
2022-07-31T05:09:56.325Z,10.80
2022-07-31T05:12:24.364Z,4.82
2022-07-31T05:14:51.778Z,11.27
2022-07-31T05:17:19.230Z,8.65
2022-07-31T05:20:13.265Z,7.68
2022-07-31T05:22:57.934Z,8.45
2022-07-31T05:25:54.598Z,8.38
2022-07-31T05:28:29.705Z,15.15
2022-07-31T05:30:58.080Z,13.23
2022-07-31T05:33:25.608Z,16.95
2022-07-31T05:35:52.991Z,13.05
2022-07-31T05:38:20.315Z,12.98
2022-07-31T05:41:10.924Z,10.57
2022-07-31T05:43:59.797Z,5.45
2022-07-31T05:46:31.422Z,10.82
2022-07-31T05:48:58.794Z,10.90
2022-07-31T05:51:26.503Z,5.88
2022-07-31T05:53:54.009Z,4.63
2022-07-31T05:56:50.201Z,11.77
2022-07-31T05:59:21.578Z,10.35
2022-07-31T06:01:49.208Z,7.53
2022-07-31T06:04:17.240Z,9.43
2022-07-31T06:06:47.051Z,12.27
2022-07-31T06:09:14.403Z,8.40
2022-07-31T06:14:11.869Z,10.10
2022-07-31T06:17:11.153Z,10.00
2022-07-31T06:19:39.616Z,10.80
2022-07-31T06:22:07.426Z,6.85
2022-07-31T06:24:35.107Z,8.32
2022-07-31T06:27:03.431Z,8.70
2022-07-31T06:29:41.915Z,4.80
2022-07-31T06:32:12.533Z,6.88
2022-07-31T06:34:40.206Z,4.75
2022-07-31T06:37:07.663Z,6.80
2022-07-31T06:39:55.408Z,6.78
2022-07-31T06:42:45.959Z,9.45
2022-07-31T06:45:25.079Z,7.50
2022-07-31T06:48:20.950Z,8.68
2022-07-31T06:51:08.587Z,8.80
2022-07-31T06:53:47.417Z,7.85
2022-07-31T06:56:14.793Z,8.43
2022-07-31T06:58:42.781Z,7.53
2022-07-31T07:01:10.243Z,6.03
2022-07-31T07:03:37.617Z,6.97
2022-07-31T07:06:05.147Z,4.47
2022-07-31T07:08:33.132Z,5.95
2022-07-31T07:11:00.947Z,7.88
2022-07-31T07:13:46.227Z,4.22
2022-07-31T07:16:16.263Z,6.43
2022-07-31T07:18:44.231Z,7.40
2022-07-31T07:21:12.425Z,7.28
2022-07-31T07:23:40.473Z,6.55
2022-07-31T07:28:47.786Z,6.35
2022-07-31T07:31:15.205Z,5.57
2022-07-31T07:33:43.163Z,8.95
2022-07-31T07:36:24.010Z,6.47
2022-07-31T07:39:04.396Z,8.50
2022-07-31T07:41:33.994Z,10.68
2022-07-31T07:44:02.072Z,5.03
2022-07-31T07:46:30.623Z,7.65
2022-07-31T07:49:01.318Z,13.27
2022-07-31T07:51:36.669Z,4.50
2022-07-31T07:54:36.579Z,10.82
2022-07-31T07:57:22.529Z,19.15
2022-07-31T08:00:11.137Z,7.35
2022-07-31T08:02:44.997Z,5.35
2022-07-31T08:05:32.502Z,8.65
2022-07-31T08:07:59.856Z,5.95
2022-07-31T08:10:43.268Z,6.60
2022-07-31T08:13:30.925Z,10.18
2022-07-31T08:16:27.394Z,3.85
2022-07-31T08:18:57.745Z,6.00
2022-07-31T08:21:25.883Z,2.78
2022-07-31T08:23:52.896Z,5.50
2022-07-31T08:26:20.659Z,3.08
2022-07-31T08:28:49.790Z,3.22
2022-07-31T08:31:21.607Z,4.63
2022-07-31T08:34:05.160Z,4.20
2022-07-31T08:36:33.570Z,4.23
2022-07-31T08:39:00.987Z,18.95
2022-07-31T08:41:46.200Z,8.55
2022-07-31T08:44:14.335Z,3.72
2022-07-31T08:46:41.567Z,7.25
2022-07-31T08:49:12.782Z,4.05
2022-07-31T08:51:51.538Z,3.53
2022-07-31T08:54:46.265Z,3.38
2022-07-31T08:57:13.880Z,2.05
2022-07-31T08:59:41.921Z,5.93
2022-07-31T09:02:09.793Z,6.30
2022-07-31T09:04:42.788Z,6.85
2022-07-31T09:07:18.999Z,2.85
2022-07-31T09:09:51.618Z,7.53
2022-07-31T09:12:33.597Z,2.60
2022-07-31T09:15:29.700Z,2.15
2022-07-31T09:17:59.792Z,4.93
2022-07-31T09:20:29.662Z,4.63
2022-07-31T09:23:10.895Z,5.63
2022-07-31T09:25:54.736Z,7.40
2022-07-31T09:28:32.669Z,4.80
2022-07-31T09:31:00.661Z,5.70
2022-07-31T09:33:47.838Z,2.25
2022-07-31T09:36:33.897Z,2.88
2022-07-31T09:39:27.057Z,5.45
2022-07-31T09:42:16.791Z,9.38
2022-07-31T09:44:57.714Z,2.50
2022-07-31T09:47:29.080Z,11.50
2022-07-31T09:50:05.430Z,2.45
2022-07-31T09:52:33.605Z,4.80
2022-07-31T09:55:15.481Z,2.03
2022-07-31T09:58:00.918Z,3.28
2022-07-31T10:00:35.381Z,3.70
2022-07-31T10:03:03.533Z,1.92
2022-07-31T10:05:32.707Z,3.50
2022-07-31T10:08:02.772Z,2.65
2022-07-31T10:10:59.565Z,2.47
2022-07-31T10:13:35.873Z,5.32
2022-07-31T10:16:08.439Z,2.00
2022-07-31T10:19:01.044Z,1.98
2022-07-31T10:22:01.826Z,1.90
2022-07-31T10:24:40.690Z,1.65
2022-07-31T10:27:09.868Z,2.40
2022-07-31T10:29:39.877Z,2.20
2022-07-31T10:32:08.970Z,2.13
2022-07-31T10:34:41.902Z,3.08
2022-07-31T10:37:33.624Z,2.25
2022-07-31T10:40:27.532Z,1.60
2022-07-31T10:43:20.269Z,2.55
2022-07-31T10:46:07.958Z,1.58
2022-07-31T10:49:08.253Z,1.75
2022-07-31T10:51:54.941Z,3.75
2022-07-31T10:54:43.860Z,8.13
2022-07-31T10:57:29.907Z,2.17
2022-07-31T11:03:22.414Z,2.58
2022-07-31T11:06:08.106Z,1.50
2022-07-31T11:09:04.799Z,1.92
2022-07-31T11:11:50.153Z,1.40
2022-07-31T11:14:55.355Z,1.80
2022-07-31T11:20:29.862Z,1.63
2022-07-31T11:23:06.982Z,1.90
2022-07-31T11:25:36.212Z,1.60
2022-07-31T11:28:19.062Z,1.20
2022-07-31T11:30:57.792Z,2.38
2022-07-31T11:33:46.463Z,1.60
2022-07-31T11:36:13.937Z,1.52
2022-07-31T11:38:44.764Z,2.55
2022-07-31T11:41:14.995Z,1.52
2022-07-31T11:43:46.522Z,1.75
2022-07-31T11:46:29.542Z,1.60
2022-07-31T11:48:57.230Z,1.80
2022-07-31T11:51:25.513Z,1.88
2022-07-31T11:53:58.044Z,3.15
2022-07-31T11:56:27.106Z,3.38
2022-07-31T11:58:56.673Z,1.45
2022-07-31T12:01:29.022Z,3.08
2022-07-31T12:04:08.377Z,2.42
2022-07-31T12:06:37.568Z,2.65
2022-07-31T12:09:04.862Z,4.72
2022-07-31T12:11:32.116Z,1.88
2022-07-31T12:13:59.563Z,1.77
2022-07-31T12:16:26.983Z,3.42
2022-07-31T12:19:01.242Z,1.75
2022-07-31T12:21:33.851Z,2.83
2022-07-31T12:24:01.422Z,1.77
2022-07-31T12:26:30.967Z,1.80
2022-07-31T12:28:58.491Z,1.48
2022-07-31T12:31:26.136Z,1.83
2022-07-31T12:33:53.548Z,1.55
2022-07-31T12:36:21.637Z,2.47
2022-07-31T12:39:02.536Z,2.00
2022-07-31T12:41:30.585Z,1.60
2022-07-31T12:44:14.450Z,2.60
2022-07-31T12:46:42.358Z,3.33
2022-07-31T12:49:09.459Z,2.50
2022-07-31T12:51:45.987Z,2.25
2022-07-31T12:54:16.019Z,1.88
2022-07-31T12:56:43.848Z,2.50
2022-07-31T12:59:11.460Z,2.03
2022-07-31T13:01:38.718Z,1.30
2022-07-31T13:04:07.685Z,2.45
2022-07-31T13:06:37.557Z,3.05
2022-07-31T13:09:05.160Z,1.45
2022-07-31T13:11:45.582Z,1.35
2022-07-31T13:14:14.475Z,3.58
2022-07-31T13:16:41.830Z,2.15
2022-07-31T13:19:08.961Z,1.30
2022-07-31T13:21:38.692Z,1.58
2022-07-31T13:24:17.435Z,2.05
2022-07-31T13:26:45.584Z,1.73
2022-07-31T13:29:13.554Z,2.25
2022-07-31T13:31:41.040Z,1.38
2022-07-31T13:34:08.428Z,2.80
2022-07-31T13:36:38.815Z,1.77
2022-07-31T13:39:06.494Z,1.67
2022-07-31T13:41:35.595Z,1.58
2022-07-31T13:44:03.593Z,1.88
2022-07-31T13:46:31.664Z,1.63
2022-07-31T13:49:02.010Z,1.83
2022-07-31T13:51:29.924Z,3.92
2022-07-31T13:53:57.552Z,4.05
2022-07-31T13:56:39.732Z,1.30
2022-07-31T13:59:12.083Z,1.50
2022-07-31T14:02:04.058Z,2.15
2022-07-31T14:04:30.874Z,1.55
2022-07-31T14:07:04.415Z,1.65
2022-07-31T14:09:34.687Z,2.60
2022-07-31T14:14:32.189Z,1.95
2022-07-31T14:16:59.131Z,1.98
2022-07-31T14:19:26.532Z,6.28
2022-07-31T14:21:56.647Z,2.30
2022-07-31T14:24:25.715Z,2.50
2022-07-31T14:26:53.298Z,1.40
2022-07-31T14:29:20.725Z,1.63
2022-07-31T14:31:48.075Z,2.05
2022-07-31T14:34:15.005Z,2.20
2022-07-31T14:36:41.934Z,1.50
2022-07-31T14:39:08.890Z,2.72
2022-07-31T14:41:36.252Z,1.63
2022-07-31T14:44:03.794Z,3.10
2022-07-31T14:46:30.768Z,1.55
2022-07-31T14:48:59.959Z,1.50
2022-07-31T14:51:27.371Z,1.70
2022-07-31T14:53:54.785Z,1.73
2022-07-31T14:56:45.071Z,3.25
2022-07-31T14:59:09.580Z,1.58
2022-07-31T15:01:36.993Z,2.17
2022-07-31T15:04:04.553Z,3.42
2022-07-31T15:06:44.463Z,1.80
2022-07-31T15:09:21.041Z,3.08
2022-07-31T15:11:59.239Z,1.60
2022-07-31T15:16:55.875Z,2.40
2022-07-31T15:19:24.618Z,2.35
2022-07-31T15:22:10.406Z,1.23
2022-07-31T15:24:48.127Z,2.90
2022-07-31T15:27:16.957Z,2.97
2022-07-31T15:30:04.246Z,1.60
2022-07-31T15:32:34.736Z,1.98
2022-07-31T15:35:02.290Z,1.98
2022-07-31T15:37:30.281Z,1.73
2022-07-31T15:40:03.902Z,1.58
2022-07-31T15:42:32.320Z,1.60
2022-07-31T15:44:59.966Z,7.95
2022-07-31T15:47:27.783Z,2.38
2022-07-31T15:49:55.271Z,5.95
2022-07-31T15:52:22.733Z,2.70
2022-07-31T15:54:51.493Z,6.53
2022-07-31T15:57:23.812Z,10.35
2022-07-31T15:59:54.492Z,3.13
2022-07-31T16:02:22.701Z,5.32
2022-07-31T16:04:52.755Z,2.55
2022-07-31T16:08:29.870Z,8.00
2022-07-31T16:10:15.322Z,4.05
2022-07-31T16:12:45.910Z,3.90
2022-07-31T16:15:13.538Z,3.50
2022-07-31T16:17:41.579Z,4.25
2022-07-31T16:20:25.544Z,3.35
2022-07-31T16:22:58.715Z,4.80
2022-07-31T16:25:26.797Z,7.18
2022-07-31T16:27:54.530Z,3.60
2022-07-31T16:30:22.749Z,6.72
2022-07-31T16:32:50.039Z,2.92
2022-07-31T16:35:17.566Z,2.65
2022-07-31T16:37:52.287Z,8.38
2022-07-31T16:40:30.942Z,3.30
2022-07-31T16:43:49.893Z,4.40
2022-07-31T16:45:56.233Z,4.72
2022-07-31T16:48:23.449Z,2.33
2022-07-31T16:50:53.784Z,1.40
2022-07-31T16:54:11.544Z,7.05
2022-07-31T16:56:14.987Z,1.58
2022-07-31T16:58:43.996Z,1.48
2022-07-31T17:01:53.827Z,5.20
2022-07-31T17:04:03.567Z,3.55
2022-07-31T17:06:35.997Z,2.00
2022-07-31T17:09:17.282Z,5.38
2022-07-31T17:11:47.115Z,4.15
2022-07-31T17:14:14.652Z,4.18
2022-07-31T17:16:46.842Z,9.13
2022-07-31T17:19:15.400Z,3.97
2022-07-31T17:21:43.888Z,2.05
2022-07-31T17:24:15.832Z,2.53
2022-07-31T17:26:43.924Z,2.10
2022-07-31T17:29:14.498Z,1.83
2022-07-31T17:31:42.451Z,5.78
2022-07-31T17:34:09.725Z,3.67
2022-07-31T17:36:37.475Z,2.88
2022-07-31T17:39:06.030Z,1.33
2022-07-31T17:41:33.526Z,4.10
2022-07-31T17:44:01.538Z,4.05
2022-07-31T17:46:36.299Z,2.45
2022-07-31T17:49:08.488Z,3.58
2022-07-31T17:51:37.239Z,1.70
2022-07-31T17:54:24.830Z,2.55
2022-07-31T17:59:23.219Z,1.95
2022-07-31T18:01:52.397Z,1.55
2022-07-31T18:04:21.296Z,2.17
2022-07-31T18:06:54.444Z,2.25
2022-07-31T18:09:23.485Z,3.30
2022-07-31T18:11:52.265Z,1.90
2022-07-31T18:14:20.297Z,2.30
2022-07-31T18:16:48.442Z,2.58
2022-07-31T18:19:16.029Z,2.10
2022-07-31T18:21:43.375Z,10.02
2022-07-31T18:24:10.799Z,9.15
2022-07-31T18:26:37.855Z,2.22
2022-07-31T18:29:05.316Z,2.20
2022-07-31T18:31:35.272Z,12.35
2022-07-31T18:34:04.546Z,1.95
2022-07-31T18:36:35.351Z,1.80
2022-07-31T18:39:03.258Z,3.03
2022-07-31T18:41:30.728Z,1.45
2022-07-31T18:43:58.484Z,7.90
2022-07-31T18:46:25.997Z,7.28
2022-07-31T18:48:55.822Z,2.75
2022-07-31T18:51:25.469Z,1.60
2022-07-31T18:53:54.519Z,2.78
2022-07-31T18:56:22.750Z,10.00
2022-07-31T18:58:50.280Z,2.08
2022-07-31T19:01:17.974Z,1.55
2022-07-31T19:03:45.814Z,3.08
2022-07-31T19:06:13.368Z,1.80
2022-07-31T19:08:40.946Z,7.20
2022-07-31T19:11:08.066Z,3.88
2022-07-31T19:13:35.622Z,1.73
2022-07-31T19:16:03.160Z,3.45
2022-07-31T19:18:30.098Z,3.15
2022-07-31T19:21:18.007Z,1.75
2022-07-31T19:23:45.146Z,1.77
2022-07-31T19:26:12.383Z,1.63
2022-07-31T19:28:45.271Z,2.35
2022-07-31T19:31:16.359Z,2.70
2022-07-31T19:33:43.880Z,2.20
2022-07-31T19:36:11.039Z,1.90
2022-07-31T19:38:39.703Z,1.75
2022-07-31T19:41:07.190Z,3.80
2022-07-31T19:43:34.641Z,4.18
2022-07-31T19:46:10.633Z,2.55
2022-07-31T19:48:44.265Z,3.75
2022-07-31T19:51:18.925Z,3.05
2022-07-31T19:53:49.089Z,2.42
2022-07-31T19:56:20.790Z,2.75
2022-07-31T19:58:49.309Z,4.35
2022-07-31T20:01:22.042Z,3.93
2022-07-31T20:03:50.252Z,3.95
2022-07-31T20:06:19.393Z,3.35
2022-07-31T20:08:47.896Z,1.70
2022-07-31T20:11:17.487Z,1.65
2022-07-31T20:13:46.103Z,2.10
2022-07-31T20:16:16.954Z,2.72
2022-07-31T20:18:48.759Z,3.67
2022-07-31T20:21:17.528Z,3.72
2022-07-31T20:23:45.084Z,3.60
2022-07-31T20:26:17.753Z,3.53
2022-07-31T20:28:45.338Z,2.58
2022-07-31T20:31:18.520Z,1.63
2022-07-31T20:33:56.976Z,1.98
2022-07-31T20:36:27.051Z,4.07
2022-07-31T20:38:54.747Z,5.25
2022-07-31T20:41:22.451Z,4.82
2022-07-31T20:43:50.496Z,7.13
2022-07-31T20:46:18.395Z,2.13
2022-07-31T20:48:46.080Z,6.13
2022-07-31T20:51:20.343Z,4.70
2022-07-31T20:53:48.202Z,3.17
2022-07-31T20:56:15.877Z,5.05
2022-07-31T20:58:46.106Z,6.30
2022-07-31T21:01:18.421Z,3.08
2022-07-31T21:03:45.888Z,7.47
2022-07-31T21:06:12.974Z,5.05
2022-07-31T21:08:41.069Z,4.05
2022-07-31T21:11:08.599Z,9.38
2022-07-31T21:13:36.394Z,5.68
2022-07-31T21:16:04.031Z,3.60
2022-07-31T21:18:34.723Z,5.65
2022-07-31T21:21:02.726Z,4.82
2022-07-31T21:23:30.144Z,4.55
2022-07-31T21:25:58.612Z,5.80
2022-07-31T21:28:27.921Z,4.07
2022-07-31T21:30:56.647Z,3.77
2022-07-31T21:33:27.717Z,4.43
2022-07-31T21:35:55.418Z,3.30
2022-07-31T21:38:23.151Z,3.58
2022-07-31T21:40:50.666Z,4.88
2022-07-31T21:43:22.358Z,4.25
2022-07-31T21:45:57.400Z,3.20
2022-07-31T21:48:28.920Z,4.68
2022-07-31T21:50:56.376Z,3.50
2022-07-31T21:53:24.308Z,3.72
2022-07-31T21:55:51.518Z,4.75
2022-07-31T21:58:19.153Z,8.45
2022-07-31T22:00:46.601Z,5.72
2022-07-31T22:03:13.681Z,3.60
2022-07-31T22:05:59.668Z,3.95
2022-07-31T22:08:27.173Z,4.13
2022-07-31T22:10:54.187Z,3.17
2022-07-31T22:13:21.347Z,6.25
2022-07-31T22:15:59.053Z,8.40
2022-07-31T22:18:33.009Z,2.90
2022-07-31T22:21:02.138Z,3.65
2022-07-31T22:23:29.627Z,4.10
2022-07-31T22:25:57.206Z,4.97
2022-07-31T22:28:26.812Z,6.20
2022-07-31T22:30:54.841Z,3.63
2022-07-31T22:33:23.010Z,4.47
2022-07-31T22:35:58.246Z,2.55
2022-07-31T22:38:28.925Z,3.72
2022-07-31T22:40:56.434Z,3.78
2022-07-31T22:44:10.710Z,2.47
2022-07-31T22:46:14.115Z,2.28
2022-07-31T22:48:41.682Z,3.72
2022-07-31T22:51:10.654Z,2.60
2022-07-31T22:53:41.158Z,2.28
2022-07-31T22:56:08.538Z,2.85
2022-07-31T22:58:35.437Z,2.05
2022-07-31T23:01:02.795Z,3.63
2022-07-31T23:03:30.151Z,1.73
2022-07-31T23:06:02.926Z,2.63
2022-07-31T23:08:44.604Z,2.20
2022-07-31T23:11:11.951Z,1.70
2022-07-31T23:13:40.157Z,2.22
2022-07-31T23:16:07.130Z,2.00
2022-07-31T23:18:34.483Z,2.33
2022-07-31T23:21:01.419Z,3.85
2022-07-31T23:23:28.719Z,2.92
2022-07-31T23:25:55.677Z,2.75
2022-07-31T23:28:22.950Z,2.25
2022-07-31T23:30:50.198Z,2.42
2022-07-31T23:33:18.973Z,2.47
2022-07-31T23:35:45.931Z,2.95
2022-07-31T23:38:13.266Z,4.15
2022-07-31T23:40:40.202Z,3.42
2022-07-31T23:43:07.527Z,2.45
2022-07-31T23:45:37.887Z,1.92
2022-07-31T23:48:05.584Z,3.08
2022-07-31T23:50:32.657Z,2.00
2022-07-31T23:53:00.010Z,1.73
2022-07-31T23:55:27.330Z,4.05
2022-07-31T23:57:54.759Z,2.85
